createdAt,value
2022-08-24T00:00:23.293Z,7.00
2022-08-24T00:03:12.210Z,6.15
2022-08-24T00:06:00.041Z,6.05
2022-08-24T00:08:50.150Z,5.50
2022-08-24T00:11:37.782Z,5.75
2022-08-24T00:14:26.069Z,5.25
2022-08-24T00:17:13.778Z,8.48
2022-08-24T00:20:05.176Z,8.45
2022-08-24T00:22:55.257Z,6.72
2022-08-24T00:25:47.655Z,6.45
2022-08-24T00:28:43.017Z,10.05
2022-08-24T00:31:33.178Z,4.93
2022-08-24T00:34:23.380Z,5.93
2022-08-24T00:37:13.330Z,9.45
2022-08-24T00:40:01.082Z,5.68
2022-08-24T00:42:50.856Z,11.68
2022-08-24T00:46:00.080Z,12.40
2022-08-24T00:48:51.485Z,6.63
2022-08-24T00:52:05.589Z,6.85
2022-08-24T00:54:58.299Z,7.15
2022-08-24T00:57:49.512Z,8.85
2022-08-24T01:00:46.276Z,7.82
2022-08-24T01:03:38.601Z,9.35
2022-08-24T01:06:26.952Z,7.63
2022-08-24T01:09:14.733Z,7.93
2022-08-24T01:12:05.329Z,10.70
2022-08-24T01:14:53.823Z,7.57
2022-08-24T01:18:01.025Z,7.13
2022-08-24T01:20:57.094Z,7.90
2022-08-24T01:24:10.849Z,8.82
2022-08-24T01:26:59.353Z,10.85
2022-08-24T01:29:48.105Z,6.78
2022-08-24T01:32:36.003Z,9.07
2022-08-24T01:35:25.110Z,8.45
2022-08-24T01:38:13.216Z,9.52
2022-08-24T01:41:03.766Z,11.50
2022-08-24T01:43:51.757Z,11.82
2022-08-24T01:46:44.917Z,6.40
2022-08-24T01:49:35.106Z,13.23
2022-08-24T01:52:25.921Z,8.60
2022-08-24T01:55:19.295Z,11.38
2022-08-24T01:58:16.128Z,9.85
2022-08-24T02:01:04.069Z,10.27
2022-08-24T02:03:51.958Z,9.93
2022-08-24T02:06:42.105Z,11.93
2022-08-24T02:09:31.293Z,9.00
2022-08-24T02:12:22.310Z,8.70
2022-08-24T02:15:11.719Z,13.38
2022-08-24T02:18:00.302Z,11.82
2022-08-24T02:20:48.891Z,19.83
2022-08-24T02:23:38.106Z,10.38
2022-08-24T02:26:25.901Z,10.30
2022-08-24T02:29:19.202Z,10.95
2022-08-24T02:32:07.473Z,7.68
2022-08-24T02:34:55.207Z,9.30
2022-08-24T02:37:46.225Z,15.95
2022-08-24T02:40:35.967Z,10.30
2022-08-24T02:43:24.829Z,9.65
2022-08-24T02:46:21.165Z,8.75
2022-08-24T02:49:11.720Z,10.93
2022-08-24T02:52:05.555Z,9.38
2022-08-24T02:54:56.616Z,7.93
2022-08-24T02:57:44.865Z,7.85
2022-08-24T03:00:36.631Z,10.13
2022-08-24T03:03:24.393Z,11.25
2022-08-24T03:06:12.611Z,8.73
2022-08-24T03:09:00.368Z,9.63
2022-08-24T03:11:51.054Z,8.65
2022-08-24T03:14:39.022Z,11.75
2022-08-24T03:17:26.866Z,14.95
2022-08-24T03:20:18.671Z,8.00
2022-08-24T03:23:06.462Z,7.90
2022-08-24T03:25:56.683Z,10.65
2022-08-24T03:28:45.151Z,6.70
2022-08-24T03:31:33.696Z,12.38
2022-08-24T03:34:22.815Z,8.02
2022-08-24T03:37:10.798Z,9.18
2022-08-24T03:40:01.335Z,14.90
2022-08-24T03:42:49.192Z,13.57
2022-08-24T03:45:37.555Z,10.57
2022-08-24T03:48:26.627Z,9.35
2022-08-24T03:51:19.199Z,13.27
2022-08-24T03:54:13.556Z,13.98
2022-08-24T03:57:02.200Z,12.70
2022-08-24T03:59:49.907Z,9.82
2022-08-24T04:02:38.170Z,10.25
2022-08-24T04:05:25.865Z,8.68
2022-08-24T04:08:13.883Z,12.63
2022-08-24T04:11:06.405Z,13.70
2022-08-24T04:13:59.565Z,10.93
2022-08-24T04:16:51.618Z,8.13
2022-08-24T04:20:00.059Z,9.82
2022-08-24T04:22:51.778Z,13.45
2022-08-24T04:25:45.217Z,9.77
2022-08-24T04:28:33.943Z,16.55
2022-08-24T04:31:23.000Z,8.05
2022-08-24T04:34:18.707Z,9.15
2022-08-24T04:37:11.216Z,14.93
2022-08-24T04:39:59.928Z,15.25
2022-08-24T04:42:59.017Z,12.65
2022-08-24T04:45:48.850Z,10.75
2022-08-24T04:48:36.683Z,10.65
2022-08-24T04:51:24.530Z,13.93
2022-08-24T04:54:12.322Z,13.65
2022-08-24T04:57:00.630Z,12.00
2022-08-24T04:59:48.711Z,10.50
2022-08-24T05:02:42.997Z,12.55
2022-08-24T05:05:33.725Z,7.93
2022-08-24T05:08:24.789Z,14.63
2022-08-24T05:11:14.264Z,11.13
2022-08-24T05:14:02.375Z,12.50
2022-08-24T05:16:52.860Z,11.05
2022-08-24T05:19:45.346Z,8.77
2022-08-24T05:22:33.446Z,10.85
2022-08-24T05:25:24.293Z,10.38
2022-08-24T05:28:14.996Z,11.32
2022-08-24T05:31:13.794Z,12.05
2022-08-24T05:34:03.338Z,10.15
2022-08-24T05:36:53.476Z,11.02
2022-08-24T05:40:08.088Z,10.17
2022-08-24T05:43:01.926Z,13.10
2022-08-24T05:45:50.098Z,9.80
2022-08-24T05:48:38.483Z,8.15
2022-08-24T05:51:35.560Z,10.85
2022-08-24T05:54:27.855Z,10.43
2022-08-24T05:57:25.658Z,12.25
2022-08-24T06:00:33.694Z,9.98
2022-08-24T06:03:21.914Z,10.20
2022-08-24T06:06:13.819Z,11.38
2022-08-24T06:09:01.877Z,15.43
2022-08-24T06:11:54.233Z,20.45
2022-08-24T06:14:46.242Z,12.38
2022-08-24T06:17:28.662Z,13.77
2022-08-24T06:20:22.467Z,13.20
2022-08-24T06:23:11.276Z,14.07
2022-08-24T06:26:26.993Z,13.95
2022-08-24T06:29:16.469Z,14.05
2022-08-24T06:32:08.751Z,13.90
2022-08-24T06:34:57.966Z,14.40
2022-08-24T06:37:46.491Z,18.45
2022-08-24T06:40:34.503Z,16.73
2022-08-24T06:43:24.700Z,17.95
2022-08-24T06:46:14.982Z,20.90
2022-08-24T06:49:06.852Z,19.02
2022-08-24T06:51:56.965Z,15.25
2022-08-24T06:54:45.303Z,15.68
2022-08-24T06:57:34.053Z,16.33
2022-08-24T07:00:22.720Z,24.52
2022-08-24T07:03:10.967Z,19.33
2022-08-24T07:06:07.903Z,21.58
2022-08-24T07:09:01.052Z,18.63
2022-08-24T07:11:50.696Z,15.63
2022-08-24T07:14:41.962Z,18.17
2022-08-24T07:17:31.499Z,20.98
2022-08-24T07:20:19.474Z,19.33
2022-08-24T07:23:41.261Z,17.75
2022-08-24T07:26:31.839Z,20.83
2022-08-24T07:29:46.336Z,24.92
2022-08-24T07:32:36.442Z,17.60
2022-08-24T07:35:27.033Z,20.92
2022-08-24T07:38:15.215Z,19.10
2022-08-24T07:41:35.507Z,20.40
2022-08-24T07:44:12.954Z,22.50
2022-08-24T07:47:10.582Z,20.90
2022-08-24T07:50:22.439Z,18.65
2022-08-24T07:53:14.893Z,19.27
2022-08-24T07:56:05.419Z,21.95
2022-08-24T07:58:55.732Z,23.77
2022-08-24T08:01:44.222Z,21.77
2022-08-24T08:04:32.598Z,20.88
2022-08-24T08:07:21.214Z,23.10
2022-08-24T08:10:12.415Z,20.95
2022-08-24T08:13:00.530Z,27.23
2022-08-24T08:15:50.839Z,19.60
2022-08-24T08:18:38.872Z,21.92
2022-08-24T08:21:50.611Z,18.40
2022-08-24T08:24:40.418Z,18.55
2022-08-24T08:27:29.624Z,20.83
2022-08-24T08:30:18.253Z,22.20
2022-08-24T08:33:07.661Z,16.75
2022-08-24T08:36:25.401Z,15.32
2022-08-24T08:39:18.949Z,14.55
2022-08-24T08:42:39.093Z,15.68
2022-08-24T08:49:30.157Z,17.88
2022-08-24T08:52:45.755Z,17.95
2022-08-24T08:56:09.805Z,16.75
2022-08-24T08:59:30.675Z,15.13
2022-08-24T09:02:29.251Z,15.13
2022-08-24T09:05:45.706Z,14.48
2022-08-24T09:08:58.010Z,15.50
2022-08-24T09:12:19.508Z,15.80
2022-08-24T09:15:28.446Z,15.45
2022-08-24T09:18:31.403Z,13.50
2022-08-24T09:21:47.670Z,14.95
2022-08-24T09:25:00.062Z,17.63
2022-08-24T09:28:14.613Z,12.18
2022-08-24T09:31:28.915Z,10.77
2022-08-24T09:34:42.968Z,15.48
2022-08-24T09:38:01.363Z,13.10
2022-08-24T09:41:20.400Z,14.10
2022-08-24T09:44:17.120Z,15.77
2022-08-24T09:47:10.586Z,13.25
2022-08-24T09:50:30.210Z,16.98
2022-08-24T09:53:23.881Z,11.00
2022-08-24T09:56:26.399Z,12.52
2022-08-24T09:59:51.131Z,11.88
2022-08-24T10:02:54.078Z,9.93
2022-08-24T10:06:04.074Z,13.45
2022-08-24T10:09:28.076Z,11.38
2022-08-24T10:12:56.370Z,12.45
2022-08-24T10:16:21.999Z,11.85
2022-08-24T10:19:31.091Z,19.85
2022-08-24T10:22:48.640Z,15.40
2022-08-24T10:25:51.864Z,8.55
2022-08-24T10:28:55.655Z,6.95
2022-08-24T10:32:07.719Z,12.15
2022-08-24T10:35:09.968Z,8.23
2022-08-24T10:38:19.118Z,15.75
2022-08-24T10:41:19.428Z,8.32
2022-08-24T10:44:45.213Z,9.82
2022-08-24T10:47:36.961Z,6.95
2022-08-24T10:53:38.097Z,11.27
2022-08-24T10:56:52.418Z,9.07
2022-08-24T10:59:58.134Z,15.75
2022-08-24T11:02:47.236Z,7.22
2022-08-24T11:05:48.179Z,12.70
2022-08-24T11:08:36.135Z,8.98
2022-08-24T11:11:29.849Z,10.45
2022-08-24T11:14:23.715Z,16.05
2022-08-24T11:17:24.242Z,7.97
2022-08-24T11:20:30.524Z,13.10
2022-08-24T11:23:31.684Z,16.02
2022-08-24T11:26:22.487Z,8.20
2022-08-24T11:29:10.383Z,22.60
2022-08-24T11:31:59.255Z,13.52
2022-08-24T11:34:47.244Z,10.82
2022-08-24T11:37:38.063Z,16.20
2022-08-24T11:40:29.786Z,14.18
2022-08-24T11:43:56.321Z,15.68
2022-08-24T11:47:03.714Z,13.23
2022-08-24T11:50:07.367Z,12.18
2022-08-24T11:52:54.965Z,7.43
2022-08-24T11:55:51.489Z,9.00
2022-08-24T11:58:55.294Z,10.32
2022-08-24T12:02:01.040Z,14.93
2022-08-24T12:05:21.341Z,15.63
2022-08-24T12:08:43.215Z,11.80
2022-08-24T12:14:49.099Z,16.33
2022-08-24T12:18:03.444Z,12.18
2022-08-24T12:20:53.045Z,8.43
2022-08-24T12:23:50.725Z,15.18
2022-08-24T12:26:47.143Z,25.80
2022-08-24T12:29:55.437Z,16.92
2022-08-24T12:32:53.949Z,15.32
2022-08-24T12:35:48.728Z,27.90
2022-08-24T12:38:45.976Z,13.70
2022-08-24T12:41:39.640Z,10.57
2022-08-24T12:44:37.766Z,18.02
2022-08-24T12:47:57.989Z,14.80
2022-08-24T12:50:51.185Z,7.47
2022-08-24T12:53:45.668Z,14.43
2022-08-24T12:57:16.227Z,14.35
2022-08-24T13:00:13.651Z,10.90
2022-08-24T13:03:07.323Z,20.48
2022-08-24T13:06:00.972Z,11.35
2022-08-24T13:08:51.509Z,7.07
2022-08-24T13:11:39.353Z,12.57
2022-08-24T13:14:29.841Z,12.20
2022-08-24T13:17:19.560Z,27.40
2022-08-24T13:20:23.924Z,17.40
2022-08-24T13:23:12.064Z,19.35
2022-08-24T13:26:18.643Z,16.20
2022-08-24T13:29:08.604Z,17.55
2022-08-24T13:31:59.932Z,15.80
2022-08-24T13:34:51.304Z,9.57
2022-08-24T13:37:39.173Z,19.23
2022-08-24T13:40:28.416Z,18.30
2022-08-24T13:43:55.731Z,9.02
2022-08-24T13:47:26.372Z,17.85
2022-08-24T13:50:43.691Z,16.00
2022-08-24T13:54:20.306Z,16.85
2022-08-24T13:57:21.823Z,14.02
2022-08-24T14:00:44.183Z,17.58
2022-08-24T14:04:06.733Z,18.58
2022-08-24T14:07:28.237Z,12.18
2022-08-24T14:10:37.487Z,19.33
2022-08-24T14:13:45.277Z,20.92
2022-08-24T14:17:23.938Z,9.02
2022-08-24T14:20:39.837Z,14.35
2022-08-24T14:23:46.192Z,16.50
2022-08-24T14:26:33.822Z,17.67
2022-08-24T14:29:31.834Z,24.30
2022-08-24T14:32:30.219Z,22.77
2022-08-24T14:35:25.564Z,14.60
2022-08-24T14:38:25.473Z,21.63
2022-08-24T14:41:30.835Z,15.93
2022-08-24T14:44:48.875Z,17.52
2022-08-24T14:47:57.087Z,21.70
2022-08-24T14:51:34.555Z,10.32
2022-08-24T14:54:40.039Z,20.05
2022-08-24T14:57:49.214Z,11.48
2022-08-24T15:01:09.347Z,17.63
2022-08-24T15:04:02.976Z,13.63
2022-08-24T15:07:21.725Z,19.42
2022-08-24T15:10:15.012Z,25.92
2022-08-24T15:13:10.336Z,26.48
2022-08-24T15:16:05.367Z,20.17
2022-08-24T15:19:27.060Z,21.48
2022-08-24T15:22:44.132Z,9.30
2022-08-24T15:26:06.136Z,16.38
2022-08-24T15:28:56.746Z,19.50
2022-08-24T15:32:00.331Z,11.43
2022-08-24T15:34:58.566Z,12.73
2022-08-24T15:37:46.556Z,21.70
2022-08-24T15:40:34.477Z,20.17
2022-08-24T15:43:22.733Z,15.80
2022-08-24T15:46:11.925Z,16.83
2022-08-24T15:49:14.583Z,17.17
2022-08-24T15:52:07.025Z,11.88
2022-08-24T15:55:03.896Z,16.77
2022-08-24T15:57:51.695Z,17.13
2022-08-24T16:00:59.586Z,14.70
2022-08-24T16:03:51.569Z,13.50
2022-08-24T16:06:46.607Z,13.20
2022-08-24T16:09:40.392Z,11.52
2022-08-24T16:12:32.385Z,14.85
2022-08-24T16:15:21.009Z,16.80
2022-08-24T16:18:08.653Z,20.60
2022-08-24T16:20:59.367Z,20.30
2022-08-24T16:23:56.178Z,18.90
2022-08-24T16:26:46.953Z,18.83
2022-08-24T16:29:42.199Z,16.90
2022-08-24T16:32:37.062Z,17.00
2022-08-24T16:35:39.017Z,20.13
2022-08-24T16:38:31.757Z,12.25
2022-08-24T16:41:22.933Z,16.83
2022-08-24T16:44:11.304Z,16.25
2022-08-24T16:46:59.015Z,12.25
2022-08-24T16:49:46.852Z,14.48
2022-08-24T16:52:34.922Z,16.67
2022-08-24T16:55:23.160Z,11.57
2022-08-24T16:58:11.515Z,13.75
2022-08-24T17:00:59.638Z,13.73
2022-08-24T17:03:47.468Z,22.35
2022-08-24T17:06:50.697Z,17.47
2022-08-24T17:09:42.870Z,14.68
2022-08-24T17:12:31.460Z,24.58
2022-08-24T17:15:19.313Z,15.15
2022-08-24T17:18:10.602Z,20.10
2022-08-24T17:20:58.569Z,14.80
2022-08-24T17:23:46.426Z,13.85
2022-08-24T17:26:34.287Z,21.48
2022-08-24T17:29:22.495Z,15.32
2022-08-24T17:32:10.454Z,9.52
2022-08-24T17:34:58.389Z,19.80
2022-08-24T17:37:46.318Z,16.35
2022-08-24T17:40:35.440Z,16.90
2022-08-24T17:43:25.029Z,17.20
2022-08-24T17:46:14.579Z,17.40
2022-08-24T17:49:02.398Z,11.50
2022-08-24T17:51:50.665Z,20.58
2022-08-24T17:54:38.373Z,15.30
2022-08-24T17:57:29.737Z,13.60
2022-08-24T18:00:18.198Z,13.80
2022-08-24T18:03:06.552Z,17.30
2022-08-24T18:05:54.356Z,17.13
2022-08-24T18:11:51.350Z,27.63
2022-08-24T18:14:42.191Z,15.70
2022-08-24T18:17:44.127Z,23.38
2022-08-24T18:20:36.589Z,12.48
2022-08-24T18:23:24.700Z,14.10
2022-08-24T18:26:15.511Z,12.68
2022-08-24T18:29:17.623Z,15.63
2022-08-24T18:32:05.701Z,24.23
2022-08-24T18:34:54.536Z,18.40
2022-08-24T18:37:42.856Z,15.30
2022-08-24T18:40:33.184Z,23.08
2022-08-24T18:43:24.859Z,20.73
2022-08-24T18:46:13.054Z,14.85
2022-08-24T18:49:01.896Z,17.85
2022-08-24T18:51:50.674Z,20.00
2022-08-24T18:54:41.757Z,23.20
2022-08-24T18:57:29.598Z,21.08
2022-08-24T19:00:17.825Z,13.93
2022-08-24T19:03:08.050Z,11.75
2022-08-24T19:05:56.497Z,7.57
2022-08-24T19:08:44.216Z,15.45
2022-08-24T19:11:32.042Z,13.73
2022-08-24T19:14:19.779Z,20.70
2022-08-24T19:17:07.744Z,9.75
2022-08-24T19:19:55.439Z,12.82
2022-08-24T19:22:47.759Z,8.75
2022-08-24T19:25:37.514Z,11.10
2022-08-24T19:28:27.260Z,8.77
2022-08-24T19:31:15.538Z,6.63
2022-08-24T19:34:03.760Z,7.35
2022-08-24T19:36:51.565Z,9.63
2022-08-24T19:39:39.443Z,9.85
2022-08-24T19:42:27.462Z,12.23
2022-08-24T19:45:34.992Z,10.77
2022-08-24T19:48:24.774Z,16.83
2022-08-24T19:51:14.291Z,7.60
2022-08-24T19:54:02.405Z,11.15
2022-08-24T19:56:53.293Z,11.10
2022-08-24T19:59:43.290Z,6.47
2022-08-24T20:02:31.735Z,6.43
2022-08-24T20:05:21.453Z,7.03
2022-08-24T20:08:11.146Z,13.40
2022-08-24T20:11:00.730Z,6.20
2022-08-24T20:13:50.419Z,12.90
2022-08-24T20:16:42.497Z,12.10
2022-08-24T20:19:36.062Z,7.22
2022-08-24T20:22:23.990Z,7.57
2022-08-24T20:25:11.762Z,7.75
2022-08-24T20:28:27.695Z,9.35
2022-08-24T20:31:09.800Z,10.38
2022-08-24T20:33:57.688Z,9.25
2022-08-24T20:36:49.252Z,7.32
2022-08-24T20:39:36.951Z,7.88
2022-08-24T20:42:26.910Z,11.07
2022-08-24T20:45:15.414Z,9.35
2022-08-24T20:48:05.142Z,12.68
2022-08-24T20:50:52.943Z,9.25
2022-08-24T20:53:40.657Z,8.52
2022-08-24T20:56:35.165Z,8.43
2022-08-24T20:59:22.929Z,8.27
2022-08-24T21:02:10.662Z,8.10
2022-08-24T21:04:58.874Z,9.25
2022-08-24T21:07:52.658Z,9.48
2022-08-24T21:10:50.996Z,8.88
2022-08-24T21:13:38.662Z,9.07
2022-08-24T21:16:29.652Z,6.65
2022-08-24T21:19:17.954Z,8.87
2022-08-24T21:22:06.373Z,9.35
2022-08-24T21:24:54.602Z,10.20
2022-08-24T21:27:44.328Z,7.45
2022-08-24T21:30:34.913Z,7.18
2022-08-24T21:33:41.355Z,6.88
2022-08-24T21:36:32.076Z,11.70
2022-08-24T21:39:19.838Z,11.18
2022-08-24T21:42:07.734Z,9.98
2022-08-24T21:44:55.419Z,10.18
2022-08-24T21:47:43.419Z,10.32
2022-08-24T21:50:31.103Z,14.77
2022-08-24T21:53:18.807Z,6.97
2022-08-24T21:56:06.829Z,9.27
2022-08-24T21:58:54.921Z,5.75
2022-08-24T22:01:43.872Z,9.48
2022-08-24T22:04:32.247Z,7.15
2022-08-24T22:07:20.376Z,7.15
2022-08-24T22:10:09.092Z,7.43
2022-08-24T22:12:59.810Z,6.18
2022-08-24T22:15:51.578Z,7.75
2022-08-24T22:18:41.131Z,9.23
2022-08-24T22:21:31.196Z,8.35
2022-08-24T22:24:24.187Z,14.95
2022-08-24T22:27:11.978Z,8.98
2022-08-24T22:29:59.996Z,9.75
2022-08-24T22:32:47.946Z,8.38
2022-08-24T22:35:45.229Z,12.13
2022-08-24T22:38:33.293Z,7.90
2022-08-24T22:41:22.036Z,11.15
2022-08-24T22:44:22.100Z,7.07
2022-08-24T22:47:13.169Z,7.47
2022-08-24T22:50:03.393Z,6.78
2022-08-24T22:52:51.038Z,6.25
2022-08-24T22:55:38.808Z,9.30
2022-08-24T22:58:28.004Z,6.45
2022-08-24T23:01:24.941Z,6.43
2022-08-24T23:04:17.536Z,9.02
2022-08-24T23:07:06.823Z,7.75
2022-08-24T23:09:54.612Z,6.97
2022-08-24T23:12:42.362Z,13.55
2022-08-24T23:15:30.356Z,9.48
2022-08-24T23:18:36.574Z,6.80
2022-08-24T23:21:24.949Z,6.35
2022-08-24T23:24:16.165Z,14.15
2022-08-24T23:27:05.511Z,9.43
2022-08-24T23:29:53.507Z,10.57
2022-08-24T23:32:41.251Z,10.20
2022-08-24T23:35:29.057Z,8.20
2022-08-24T23:38:31.908Z,7.88
2022-08-24T23:41:31.742Z,12.48
2022-08-24T23:44:26.101Z,9.10
2022-08-24T23:47:13.737Z,13.02
2022-08-24T23:50:01.435Z,9.65
2022-08-24T23:52:49.286Z,5.85
2022-08-24T23:55:37.056Z,6.22
2022-08-24T23:58:24.806Z,6.28
